Tiempo atmosférico en la estación meteorológica de Almería Aeropuerto, Almería (21 m.)



Fecha
DESCASC
Temp. máxima en grados centígrados (hora)
DESCASC
Temp. mínima en grados centígrados (hora)
DESCASC
Temp. media en grados centígrados
DESCASC
Racha de viento máxima en m/sg (hora)
DESCASC
Velocidad máxima media en intervalos de 10 minutos(hora)
DESCASC
Precipitaciones diarias en mm
DESCASC
Precipitaciones de 00:00 a 06:00 en mm
DESCASC
Precipitaciones de 06:00 a 12:00 en mm
DESCASC
Precipitaciones de 12:00 a 18:00 en mm
DESCASC
Precipitaciones de 18:00 a 24:00 en mm
DESCASC
06-12-2018 17.8 (16:20) 9 (08:00) 13.4 5 (13:30) 3.06 (13:10) 0 0 0 0 0
05-12-2018 21.1 (11:10) 10.9 (06:50) 16 5.83 (05:40) 4.17 (06:00) 0 0 0 0 0
04-12-2018 21.9 (11:40) 11.8 (08:20) 16.8 8.33 (04:50) 5.83 (04:10) 0 0 0 0 0
03-12-2018 19.1 (14:20) 9.1 (00:00) 14.1 4.72 (23:20) 3.61 (02:00) 0 0 0 0 0
02-12-2018 18.8 (14:00) 9.8 (00:00) 14.3 6.11 (14:20) 5 (17:30) 0 0 0 0 0
01-12-2018 19 (14:40) 10.7 (00:00) 14.8 10.28 (06:40) 7.5 (06:40) 0 0 0 0 0
30-11-2018 20.7 (13:50) 9.5 (00:00) 15.1 6.67 (02:20) 4.72 (02:20) 0 0 0 0 0
29-11-2018 17.7 (15:20) 6.2 (00:00) 12 6.67 (16:10) 4.72 (16:10) 0 0 0 0 0
28-11-2018 18.6 (15:20) 9.4 (00:00) 14 8.33 (03:10) 5.83 (03:10) 0 0 0 0 0
27-11-2018 19.7 (13:50) 11 (00:00) 15.4 9.72 (00:10) 6.94 (07:30) 0 0 0 0 0
26-11-2018 21.7 (13:00) 15.4 (20:30) 18.6 23.61 (00:50) 16.67 (00:50) 0 0 0 0 0
25-11-2018 18.9 (10:50) 8.4 (00:00) 13.6 18.61 (14:20) 13.61 (14:20) 0 0 0 0 0
24-11-2018 19.3 (12:10) 11.6 (00:00) 15.4 9.17 (07:20) 6.67 (09:10) 0 0 0 0 0
23-11-2018 18 (10:40) 11.8 (00:00) 14.9 9.17 (03:40) 6.67 (10:30) 0 0 0 0 0
22-11-2018 20.6 (14:30) 13.4 (00:00) 17 8.33 (00:20) 6.11 (00:20) 0 0 0 0 0
21-11-2018 18.5 (16:10) 12.1 (00:00) 15.3 15 (02:30) 11.11 (02:10) 0.4 0.4 0 0 0
20-11-2018 18 (10:30) 10.4 (00:00) 14.2 18.89 (15:50) 13.89 (15:50) 2.3 0 0 2.3 0
19-11-2018 19 (14:20) 12.6 (00:00) 15.8 13.89 (14:30) 10.56 (14:30) 0.2 0.2 0 0 0
18-11-2018 20.4 (13:00) 13 (00:00) 16.7 14.44 (13:00) 10.28 (16:50) 4.7 0 0 0 4.7
17-11-2018 22.4 (13:40) 14.9 (00:00) 18.6 12.78 (11:10) 8.89 (14:10) 0 0 0 0 0
16-11-2018 22.3 (14:30) 15.1 (00:00) 18.7 12.5 (13:50) 9.44 (14:30) 0 0 0 0 0
15-11-2018 22.7 (12:50) 15.9 (00:00) 19.3 13.33 (00:50) 10.28 (01:00) 0 0 0 0 0
14-11-2018 23.5 (15:00) 19.1 (00:00) 21.3 15.28 (04:20) 11.11 (10:20) 0 0 0 0 0
13-11-2018 22.9 (11:40) 14.3 (00:00) 18.6 15 (13:50) 11.11 (14:50) 0 0 0 0 0
12-11-2018 20.3 (13:20) 10.5 (00:00) 15.4 6.11 (07:50) 3.89 (18:20) 0 0 0 0 0
11-11-2018 19.3 (14:50) 11 (00:00) 15.1 4.72 (07:40) 3.61 (07:50) 0 0 0 0 0
10-11-2018 18.5 (15:20) 11.1 (00:00) 14.8 7.22 (13:50) 5.28 (13:50) 0 0 0 0 0
09-11-2018 21 (12:00) 13.3 (00:00) 17.2 15.28 (08:10) 10.28 (09:40) 0 0 0 0 0

Gráficas

Temp. máximas Temp. mínimas Temp. medias Precipitaciones Rachas de viento máximas Velocidades máximas media en intervalos de 10 minutos

Datos horarios

Fecha y hora oficial Temperatura (ºC) Velocidad del viento (km/h) Dirección del viento Racha (km/h) Dirección de racha Precipitación (mm) Presión (hPa) Tendencia (hPa) Humedad (%)
2018-12-08 23:00:00 13.6 15 Noroeste 24 Noroeste 0 1026.7 0.9 78
2018-12-08 22:00:00 12.5 6 Nordeste 15 Este 0 1026.6 1.5 83
2018-12-08 21:00:00 14.1 15 Este 21 Nordeste 0 1026.2 1.4 79
2018-12-08 20:00:00 14.5 11 Nordeste 13 Nordeste 0 1025.8 1.5 76
2018-12-08 19:00:00 14.2 9 Norte 13 Norte 0 1025.1 1 90
2018-12-08 18:00:00 15.9 4 Noroeste 9 Sudoeste 0 1024.8 0.8 86
2018-12-08 17:00:00 17.1 9 Sudoeste 15 Sudoeste 0 1024.3 0 81
2018-12-08 16:00:00 18.6 12 Sur 21 Sudoeste 0 1024.1 -0.5 73
2018-12-08 15:00:00 18 16 Sudoeste 22 Oeste 0 1024 -1.1 76
2018-12-08 14:00:00 17.4 8 Sur 13 Sur 0 1024.3 -1 75
2018-12-08 13:00:00 18.3 9 Sur 13 Sur 0 1024.6 0 67
2018-12-08 12:00:00 18.4 8 Sur 18 Norte 0 1025.1 0.8 63
2018-12-08 11:00:00 15.9 12 Nordeste 17 Nordeste 0 1025.3 1.5 69
2018-12-08 10:00:00 13.3 13 Norte 18 Norte 0 1024.6 1.7 87
2018-12-08 09:00:00 12.7 8 Norte 15 Norte 0 1024.3 1.6 94
2018-12-08 08:00:00 12.4 9 Noroeste 13 Norte 0 1023.8 1.2 96
2018-12-08 07:00:00 12.3 5 Oeste 13 Norte 0 1022.9 0 97
2018-12-08 06:00:00 11.7 10 Norte 13 Norte 0 1022.7 -0.4 96
2018-12-08 05:00:00 12 7 Norte 11 Norte 0 1022.6 -0.2 98
2018-12-08 04:00:00 12.2 6 Oeste 13 Oeste 0 1022.9 -0.3 98
2018-12-08 03:00:00 12.6 4 Noroeste 11 Norte 0 1023.1 -0.6 98
2018-12-08 02:00:00 11.8 6 Norte 11 Norte 0 1022.8 -0.8 97
2018-12-08 01:00:00 10.5 10 Norte 13 Norte 0 1023.2 -0.6 96
2018-12-08 00:00:00 11.6 5 Oeste 11 Noroeste 0 1023.7 -0.4 97
2018-12-07 23:00:00 10.8 5 Norte 9 Norte 0 1023.6 -0.1 97
2018-12-07 22:00:00 11.8 3 Oeste 11 Oeste 0 1023.8 0.1 97
2018-12-07 21:00:00 11.8 9 Oeste 13 Oeste 0 1024.1 0.2 96
2018-12-07 20:00:00 13.3 12 Oeste 17 Sudoeste 0 1023.7 0.1 94
2018-12-07 19:00:00 14.6 13 Sudoeste 22 Sudoeste 0 1023.7 0.5 90
2018-12-07 18:00:00 15.3 15 Sudoeste 22 Sudoeste 0 1023.9 0.5 88
2018-12-07 17:00:00 16.4 14 Sudoeste 22 Sur 0 1023.6 -0.2 82
2018-12-07 16:00:00 17.2 17 Sudoeste 22 Sudoeste 0 1023.2 -1.5 78
2018-12-07 15:00:00 17.6 17 Sudoeste 22 Sudoeste 0 1023.4 -1.9 76
2018-12-07 14:00:00 17.5 14 Sudoeste 21 Sudoeste 0 1023.8 -1.9 76
2018-12-07 13:00:00 17.6 15 Sudoeste 21 Sudoeste 0 1024.7 -0.6 76
2018-12-07 12:00:00 17.8 10 Sudoeste 15 Sudoeste 0 1025.3 0.4 76
2018-12-07 11:00:00 17.3 6 Oeste 18 Noroeste 0 1025.7 1.2 63
2018-12-07 10:00:00 14 14 Noroeste 21 Noroeste 0 1025.3 1.2 63
2018-12-07 09:00:00 11 10 Noroeste 13 Noroeste 0 1024.9 1.2 94
2018-12-07 08:00:00 10 8 Norte 13 Norte 0 1024.5 1 89
2018-12-07 07:00:00 10.4 12 Norte 15 Norte 0 1024.1 0.2 77
2018-12-07 06:00:00 9.6 8 Noroeste 11 Noroeste 0 1023.7 -0.2 90
2018-12-07 05:00:00 10.4 8 Norte 15 Noroeste 0 1023.5 -0.4 86
2018-12-07 04:00:00 10 6 Norte 9 Noroeste 0 1023.9 -0.3 87
2018-12-07 03:00:00 11.3 5 Norte 21 Noroeste 0 1023.9 -0.6 82
2018-12-07 02:00:00 12.3 12 Noroeste 18 Noroeste 0 1023.9 -0.4 79
2018-12-07 01:00:00 12 8 Noroeste 13 Noroeste 0 1024.2 0 82
2018-12-07 00:00:00 11.7 3 Oeste 8 Oeste 0 1024.5 0.5 86
2018-12-06 23:00:00 12.2 6 Norte 9 Norte 0 1024.3 0.4 85
2018-12-06 22:00:00 12.6 6 Norte 9 Noroeste 0 1024.2 0.9 83
2018-12-06 21:00:00 11.8 4 Nordeste 8 Norte 0 1024 0.9 90
2018-12-06 20:00:00 12.7 3 Norte 8 Sudoeste 0 1023.9 1.1 94
2018-12-06 19:00:00 14 5 Oeste 8 Noroeste 0 1023.3 0.8 95
2018-12-06 18:00:00 16.4 0 Calma 8 Sudoeste 0 1023.1 0.3 87
2018-12-06 17:00:00 17.4 5 Sur 9 Sur 0 1022.8 -0.5 83
2018-12-06 16:00:00 17.6 7 Sur 13 Sudoeste 0 1022.5 -1.5 82
2018-12-06 15:00:00 17.5 8 Sur 15 Sur 0 1022.8 -2 81
2018-12-06 14:00:00 17.2 10 Sur 18 Sur 0 1023.3 -1.9 82
2018-12-06 13:00:00 16.7 10 Sur 15 Sur 0 1024 -0.6 83
2018-12-06 12:00:00 15.6 8 Sudoeste 15 Sudoeste 0 1024.8 0.7 87
2018-12-06 11:00:00 13.9 6 Oeste 13 Oeste 0 1025.2 1.8 100
2018-12-06 10:00:00 12.9 5 Nordeste 8 Nordeste 0 1024.6 1.6 100
2018-12-06 09:00:00 11.8 4 Norte 11 Noroeste 0 1024.1 1.5 99
2018-12-06 08:00:00 9.2 5 Oeste 13 Noroeste 0 1023.4 0.9 84
2018-12-06 07:00:00 9.8 8 Noroeste 11 Oeste 0 1023 0.4 89
2018-12-06 06:00:00 9.9 8 Norte 11 Norte 0 1022.6 0.1 85
2018-12-06 05:00:00 10.3 6 Norte 11 Norte 0 1022.5 0 90
2018-12-06 04:00:00 10.1 8 Norte 11 Norte 0 1022.6 -0.4 84
2018-12-06 03:00:00 10.3 0 Calma 5 Oeste 0 1022.5 -0.7 87
2018-12-06 02:00:00 11.2 3 Oeste 11 Noroeste 0 1022.5 -0.9 84
2018-12-06 01:00:00 11.3 6 Norte 9 Noroeste 0 1023 -0.5 92
2018-12-06 00:00:00 11.7 3 Norte 9 Norte 0 1023.2 -0.2 91
2018-12-05 23:00:00 12.4 8 Norte 11 Nordeste 0 1023.4 0.3 89
2018-12-05 22:00:00 13.1 5 Norte 8 Norte 0 1023.5 0.9 89
2018-12-05 21:00:00 13.2 5 Noroeste 8 Norte 0 1023.4 1.2 90
2018-12-05 20:00:00 14 6 Noroeste 9 Noroeste 0 1023.1 1.7 91
2018-12-05 19:00:00 15.6 4 Oeste 17 Oeste 0 1022.6 1.4 88
2018-12-05 18:00:00 16.6 13 Oeste 18 Oeste 0 1022.2 0.7 85
2018-12-05 17:00:00 18.7 14 Oeste 21 Oeste 0 1021.4 -0.6 77
2018-12-05 16:00:00 18.8 11 Sudoeste 13 Sudoeste 0 1021.2 -1.2 79
2018-12-05 15:00:00 19.2 9 Sur 15 Sudoeste 0 1021.5 -1.6 77
2018-12-05 14:00:00 19 8 Sur 17 Sudoeste 0 1022 -1.4 77
2018-12-05 13:00:00 19.5 15 Sur 21 Sur 0 1022.4 -0.4 69
2018-12-05 12:00:00 19.5 10 Sudoeste 15 Sudoeste 0 1023.1 0.8 60
2018-12-05 11:00:00 20.6 3 Sur 8 Sur 0 1023.4 1.5 54
2018-12-05 10:00:00 17.9 6 Norte 13 Norte 0 1022.8 1.2 55
2018-12-05 09:00:00 13 10 Noroeste 13 Noroeste 0 1022.3 1.1 76
2018-12-05 08:00:00 11.2 2 Nordeste 9 Norte 0 1021.9 0.7 81
2018-12-05 07:00:00 11.9 5 Norte 17 Noroeste 0 1021.6 0.6 78
2018-12-05 06:00:00 14.1 15 Noroeste 21 Noroeste 0 1021.2 0.1 64
2018-12-05 05:00:00 13 13 Noroeste 17 Noroeste 0 1021.2 0 72
2018-12-05 04:00:00 13.1 13 Noroeste 17 Norte 0 1021 -0.7 72
2018-12-05 03:00:00 12.9 8 Norte 18 Norte 0 1021.1 -0.7 74
2018-12-05 02:00:00 12.8 13 Norte 17 Norte 0 1021.2 -0.3 77
2018-12-05 01:00:00 12.2 8 Norte 9 Norte 0 1021.7 0.3 81
2018-12-05 00:00:00 12.6 2 Norte 11 Norte 0 1021.8 0.7 81
2018-12-04 23:00:00 13 5 Norte 9 Sudoeste 0 1021.5 0.8 84
2018-12-04 22:00:00 13.6 4 Oeste 9 Norte 0 1021.4 0.9 82
2018-12-04 21:00:00 14.6 0 Calma 9 Norte 0 1021.1 1 79
2018-12-04 20:00:00 15.8 10 Norte 13 Norte 0 1020.7 0.7 74
2018-12-04 19:00:00 17.1 7 Nordeste 9 Este 0 1020.5 0.7 80
2018-12-04 18:00:00 18.1 4 Oeste 13 Sudoeste 0 1020.1 0.3 81
2018-12-04 17:00:00 19.6 9 Sudoeste 13 Sudoeste 0 1020 -0.2 80
2018-12-04 16:00:00 20.1 10 Sudoeste 15 Sudoeste 0 1019.8 -0.9 76
2018-12-04 15:00:00 20 12 Sudoeste 15 Sudoeste 0 1019.8 -1.3 75
2018-12-04 14:00:00 19.7 11 Sudoeste 17 Sudoeste 0 1020.2 -1.3 76
2018-12-04 13:00:00 20 12 Sudoeste 17 Sudoeste 0 1020.7 -0.4 76
2018-12-04 12:00:00 21.4 6 Sur 11 Sur 0 1021.1 0.7 58
2018-12-04 11:00:00 21.2 5 Este 9 Este 0 1021.5 1.5 52
2018-12-04 10:00:00 18.9 0 Calma 8 Noroeste 0 1021.1 1.7 52
2018-12-04 09:00:00 13.7 6 Noroeste 8 Noroeste 0 1020.4 1.5 73
2018-12-04 08:00:00 12.1 6 Norte 11 Norte 0 1020 1.1 75
2018-12-04 07:00:00 15.1 4 Nordeste 17 Nordeste 0 1019.4 0.3 59
2018-12-04 06:00:00 17.3 13 Norte 26 Norte 0 1018.9 -0.7 52
2018-12-04 05:00:00 16.5 17 Norte 30 Norte 0 1018.9 -0.7 56
2018-12-04 04:00:00 15.8 19 Norte 26 Noroeste 0 1019.1 -0.7 61
2018-12-04 03:00:00 14.3 15 Noroeste 18 Noroeste 0 1019.6 -0.6 72
2018-12-04 02:00:00 15.5 3 Este 13 Norte 0 1019.6 -0.7 69
2018-12-04 01:00:00 14.5 10 Norte 21 Noroeste 0 1019.8 -0.3 76
2018-12-04 00:00:00 14.1 3 Norte 17 Norte 0 1020.2 0.3 82
2018-12-03 23:00:00 13.6 9 Norte 13 Norte 0 1020.3 1 89
2018-12-03 22:00:00 13.1 10 Noroeste 13 Norte 0 1020.1 1.3 94
2018-12-03 21:00:00 13.9 2 Este 8 Nordeste 0 1019.9 1.7 93
2018-12-03 20:00:00 14.2 5 Norte 9 Norte 0 1019.3 1.2 95
2018-12-03 19:00:00 15.1 5 Norte 9 Noroeste 0 1018.8 0.9 95
2018-12-03 18:00:00 16.9 3 Sudoeste -- -- 0 1018.2 0.3 90
2018-12-03 17:00:00 18.4 6 Sur 13 Sur 0 1018.1 -- 83
2018-12-03 16:00:00 18.6 9 Sur 15 Sur 0 1017.9 -1 82
2018-12-03 15:00:00 18.9 9 Sur 13 Sur 0 1017.9 -1.8 77
2018-12-03 14:00:00 -- 8 Sur 13 Sudeste -- -- -- --
2018-12-03 13:00:00 18.4 9 Sur 13 Sur 0 1018.9 -0.8 77
2018-12-03 12:00:00 18 8 Sur 13 Sudoeste 0 1019.7 0.2 78
2018-12-03 11:00:00 17.4 6 Sur 9 Sudoeste 0 1020.2 0.7 72
2018-12-03 10:00:00 16 3 Sur 8 Norte 0 1019.7 0.4 75
2018-12-03 09:00:00 11.7 6 Norte 11 Norte 0 1019.5 0.5 87
2018-12-03 08:00:00 9.9 4 Norte 8 Nordeste 0 1019.5 0.4 92
2018-12-03 07:00:00 9.5 0 Calma 5 Norte 0 1019.3 -0.1 91
2018-12-03 06:00:00 10.3 2 Norte 13 Norte 0 1019 -0.6 91
2018-12-03 05:00:00 10.6 8 Norte 11 Norte 0 1019.1 -0.5 90
2018-12-03 04:00:00 10.4 4 Norte 11 Noroeste 0 1019.4 -0.8 95
2018-12-03 03:00:00 10.9 3 Norte 13 Noroeste 0 1019.6 -1.1 94
2018-12-03 02:00:00 11.3 13 Noroeste 15 Noroeste 0 1019.6 -1.2 95
2018-12-03 01:00:00 11.7 8 Norte 13 Norte 0 1020.2 -0.2 94
2018-12-03 00:00:00 12.2 -- -- -- -- 0 1020.7 0.5 93
2018-12-02 23:00:00 12.4 10 Nordeste 13 Nordeste 0 1020.8 0.9 94
2018-12-02 22:00:00 12.4 7 Norte 9 Norte 0 1020.4 1 90
2018-12-02 21:00:00 -- -- -- -- -- 0 1020.2 1 --
2018-12-02 20:00:00 13.4 7 Norte 9 Nordeste 0 1019.9 0.7 90
2018-12-02 19:00:00 14.8 5 Norte 13 Oeste 0 1019.4 0.6 85
2018-12-02 18:00:00 16.5 11 Sudoeste 22 Sudoeste 0 1019.2 0.2 86
2018-12-02 17:00:00 17.5 14 Sudoeste 21 Sudoeste 0 1019.2 -0.5 81
2018-12-02 16:00:00 18.2 15 Sudoeste 22 Sudoeste 0 1018.8 -1.8 77
2018-12-02 15:00:00 18.6 16 Sudoeste 22 Sudoeste 0 1019 -2.2 73
2018-12-02 14:00:00 18.7 15 Sudoeste 21 Sudoeste 0 1019.7 -2.1 72
2018-12-02 13:00:00 18.2 10 Sur 15 Sur 0 1020.6 -0.9 73
2018-12-02 12:00:00 17.5 8 Sur 13 Sur 0 1021.2 0.2 69
2018-12-02 11:00:00 17.3 4 Sur 13 Sudeste 0 1021.8 1.1 67
2018-12-02 10:00:00 14.1 0 Calma 11 Norte 0 1021.5 1.1 78
2018-12-02 09:00:00 11.5 9 Norte 13 Noroeste 0 1021 0.7 85
2018-12-02 08:00:00 11.4 9 Noroeste 18 Noroeste 0 1020.7 0.4 80
2018-12-02 07:00:00 11.4 12 Noroeste 17 Noroeste 0 1020.4 0.1 86
2018-12-02 06:00:00 10.6 8 Noroeste 11 Noroeste 0 1020.3 -0.2 93
2018-12-02 05:00:00 10.5 5 Norte 11 Nordeste 0 1020.3 -0.1 91
2018-12-02 04:00:00 10.3 9 Norte 13 Noroeste 0 1020.3 -0.1 93
2018-12-02 03:00:00 10.3 6 Norte 13 Este 0 1020.5 -0.1 92
2018-12-02 02:00:00 10.8 9 Noroeste 15 Noroeste 0 1020.4 -0.7 90
2018-12-02 01:00:00 11.2 11 Norte 13 Norte 0 1020.4 -0.5 88
2018-12-02 00:00:00 11.9 10 Norte 18 Noroeste 0 1020.6 -0.2 85
2018-12-01 23:00:00 12.4 13 Noroeste 17 Noroeste 0 1021.1 0.6 84
2018-12-01 22:00:00 12.5 11 Noroeste 15 Noroeste 0 1020.9 0.5 86
2018-12-01 21:00:00 12.1 6 Noroeste 9 Noroeste 0 1020.8 0.3 89
2018-12-01 20:00:00 14.3 7 Oeste 17 Sudoeste 0 1020.5 0 82
2018-12-01 19:00:00 14.8 12 Oeste 15 Oeste 0 1020.4 0.5 79
2018-12-01 18:00:00 16.1 10 Sudoeste 17 Sur 0 1020.5 0.7 74
2018-12-01 17:00:00 16.7 12 Sudoeste 18 Sur 0 1020.5 0.1 69
2018-12-01 16:00:00 18.2 14 Sur 21 Sur 0 1019.9 -1.2 60
2018-12-01 15:00:00 18.6 12 Sur 15 Sur 0 1019.8 -2.2 59
2018-12-01 14:00:00 18.5 10 Sur 15 Sudoeste 0 1020.4 -1.7 55
2018-12-01 13:00:00 18.5 9 Sur 15 Sudoeste 0 1021.1 -0.9 48
2018-12-01 12:00:00 18.5 6 Sur 13 Sur 0 1022 0.7 45
2018-12-01 11:00:00 17 6 Noroeste 17 Norte 0 1022.1 1.7 43
2018-12-01 10:00:00 13.3 12 Norte 24 Norte 0 1022 2 51
2018-12-01 09:00:00 11.7 13 Nordeste 32 Norte 0 1021.3 1.6 56
2018-12-01 08:00:00 11.2 24 Noroeste 35 Noroeste 0 1020.4 1.1 57
2018-12-01 07:00:00 11.3 25 Noroeste 37 Noroeste 0 1020 0.5 58
2018-12-01 06:00:00 10.9 26 Noroeste 35 Noroeste 0 1019.7 -0.4 58
2018-12-01 05:00:00 11.3 22 Noroeste 33 Noroeste 0 1019.3 -0.7 56
2018-12-01 04:00:00 12.2 21 Noroeste 28 Noroeste 0 1019.5 -0.4 56
2018-12-01 03:00:00 12.2 18 Noroeste 26 Noroeste 0 1020.1 0 55
2018-12-01 02:00:00 12 15 Noroeste 24 Noroeste 0 1020 0.4 55
2018-12-01 01:00:00 11.9 13 Noroeste 26 Noroeste 0 1019.9 1 61
2018-12-01 00:00:00 11.9 13 Norte 18 Norte 0 1020.1 2 62
2018-11-30 23:00:00 12.1 12 Norte 17 Norte 0 1019.6 1.9 59
2018-11-30 22:00:00 11.8 5 Noroeste 13 Noroeste 0 1018.9 1.8 84
2018-11-30 21:00:00 14.2 10 Nordeste 17 Sudeste 0 1018.1 1.7 76
2018-11-30 20:00:00 15 7 Sudeste 15 Este 0 1017.7 2 83
2018-11-30 19:00:00 15.7 10 Este 15 Nordeste 0 1017.1 2.4 87
2018-11-30 18:00:00 17.1 8 Este 13 Sudeste 0 1016.4 2 85
2018-11-30 17:00:00 18.8 10 Sudeste 15 Sudeste 0 1015.7 1 78
2018-11-30 16:00:00 19.6 10 Sudeste 15 Sur 0 1014.7 -0.3 76
2018-11-30 15:00:00 19.8 13 Sur 18 Sur 0 1014.4 -0.6 77
2018-11-30 14:00:00 20.6 9 Sur 17 Sur 0 1014.7 -0.7 66
2018-11-30 13:00:00 19.3 15 Sudoeste 18 Sudoeste 0 1015 -0.4 73
2018-11-30 12:00:00 19.4 9 Este 17 Este 0 1015 0.1 74
2018-11-30 11:00:00 18.4 10 Este 17 Este 0 1015.4 1.1 72
2018-11-30 10:00:00 15.7 12 Este 17 Nordeste 0 1015.4 1.4 79
2018-11-30 09:00:00 12.3 6 Norte 13 Norte 0 1014.9 1 90
2018-11-30 08:00:00 10.1 11 Norte 17 Norte 0 1014.3 0 93
2018-11-30 07:00:00 9.9 8 Norte 11 Norte 0 1014 -0.8 90
2018-11-30 06:00:00 10.4 5 Nordeste 15 Noroeste 0 1013.9 -0.9 85
2018-11-30 05:00:00 11.3 13 Noroeste 21 Noroeste 0 1014.3 -1.1 81
2018-11-30 04:00:00 10.4 13 Norte 18 Norte 0 1014.8 -1.1 91
2018-11-30 03:00:00 11.3 14 Noroeste 24 Noroeste 0 1014.8 -1.6 88
2018-11-30 02:00:00 10.9 10 Noroeste 18 Noroeste 0 1015.4 -1.5 93
2018-11-30 01:00:00 11.5 13 Noroeste 17 Noroeste 0 1015.9 -1.2 94
2018-11-30 00:00:00 11.6 9 Noroeste 13 Noroeste 0 1016.4 -0.8 95
2018-11-29 23:00:00 12.9 8 Oeste 15 Oeste 0 1016.9 -0.3 91
2018-11-29 22:00:00 13.6 6 Oeste 15 Oeste 0 1017.1 -0.2 93
2018-11-29 21:00:00 12.3 6 Noroeste 9 Noroeste 0 1017.2 0.1 94
2018-11-29 20:00:00 14 8 Oeste 18 Sudoeste 0 1017.2 0 92
2018-11-29 19:00:00 14.6 11 Oeste 21 Sudoeste 0 1017.3 0.2 87
2018-11-29 18:00:00 15.5 15 Sudoeste 22 Sudoeste 0 1017.1 -0.3 83
2018-11-29 17:00:00 16.5 15 Sudoeste 24 Sur 0 1017.2 -0.9 79
2018-11-29 16:00:00 17.1 15 Sudoeste 21 Sudoeste 0 1017.1 -1.8 77
2018-11-29 15:00:00 17.4 14 Sur 22 Sudoeste 0 1017.4 -2.7 75
2018-11-29 14:00:00 17.3 13 Sur 18 Sur 0 1018.1 -2.1 74
2018-11-29 13:00:00 16.9 10 Sur 13 Sur 0 1018.9 -1.1 74
2018-11-29 12:00:00 16.7 8 Sur 13 Sur 0 1020.1 0.4 72
2018-11-29 11:00:00 16.4 4 Sur 9 Sur 0 1020.2 1.1 68
2018-11-29 10:00:00 13.7 2 Sudoeste 8 Norte 0 1020 1.3 75
2018-11-29 09:00:00 9.2 2 Oeste 11 Norte 0 1019.7 0.9 83
2018-11-29 08:00:00 8.3 8 Norte 13 Norte 0 1019.1 0.1 83
2018-11-29 07:00:00 7.1 0 Calma 11 Norte 0 1018.7 -0.7 83
2018-11-29 06:00:00 -- 11 Norte 15 Norte 0 1018.8 -0.6 --
2018-11-29 05:00:00 8.2 6 Norte 11 Norte 0 1019 -0.6 83
2018-11-29 04:00:00 7.7 4 Norte 9 Norte 0 1019.4 -0.7 84
2018-11-29 03:00:00 8.9 5 Norte 9 Norte 0 1019.4 -1.2 81
2018-11-29 02:00:00 8.6 2 Noroeste 5 Noroeste 0 1019.6 -1 92
2018-11-29 01:00:00 8.3 2 Sur 13 Noroeste 0 1020.1 -0.4 84
2018-11-29 00:00:00 9.4 4 Oeste 13 Norte 0 1020.6 0.3 87
2018-11-28 23:00:00 10 8 Norte 13 Norte 0 1020.6 -- 91
2018-11-28 22:00:00 11.1 7 Norte 9 Nordeste 0 1020.5 -- 88
2018-11-28 21:00:00 11.7 8 Norte 13 Norte 0 1020.3 0.2 88
2018-11-28 14:00:00 18.1 10 Sur 13 Sur 0 1020.5 -1.6 64
2018-11-28 13:00:00 17.7 6 Sudeste 13 Sur 0 1021.1 -0.6 63
2018-11-28 12:00:00 17.2 6 Sur 13 Sur 0 1021.8 0.2 62
2018-11-28 11:00:00 16.7 8 Sur 13 Oeste 0 1022.1 0.9 59
2018-11-28 10:00:00 14.3 9 Noroeste 21 Noroeste 0 1021.7 1 41
2018-11-28 09:00:00 11.5 14 Noroeste 21 Noroeste 0 1021.6 1.1 47
2018-11-28 08:00:00 10.3 14 Noroeste 24 Noroeste 0 1021.2 0.9 51
2018-11-28 07:00:00 10.7 15 Noroeste 21 Norte 0 1020.7 0.4 51
2018-11-28 06:00:00 10.2 15 Noroeste 26 Noroeste 0 1020.5 0 58
2018-11-28 05:00:00 10.8 19 Noroeste 30 Noroeste 0 1020.3 -0.4 57
2018-11-28 04:00:00 10.8 21 Noroeste 30 Noroeste 0 1020.3 -0.6 62
2018-11-28 03:00:00 10.9 18 Noroeste 26 Noroeste 0 1020.5 -0.7 66
2018-11-28 02:00:00 10.9 17 Noroeste 26 Noroeste 0 1020.7 -0.6 70
2018-11-28 01:00:00 11.1 14 Noroeste 26 Noroeste 0 1020.9 -0.5 73
2018-11-28 00:00:00 11 11 Noroeste 30 Noroeste 0 1021.2 -0.2 80
2018-11-27 23:00:00 11.9 21 Noroeste 30 Noroeste 0 1021.3 0.5 80
2018-11-27 22:00:00 11.3 12 Norte 15 Norte 0 1021.4 0.9 84
2018-11-27 21:00:00 12.2 7 Norte 9 Norte 0 1021.4 1.5 86
2018-11-27 20:00:00 13.7 4 Noroeste 17 Sudoeste 0 1020.8 0.9 82
2018-11-27 19:00:00 15.8 13 Sudoeste 21 Sur 0 1020.5 0.8 80
2018-11-27 18:00:00 16.3 12 Sudoeste 21 Sur 0 1019.9 0.2 76
2018-11-27 17:00:00 18 15 Sudoeste 21 Sur 0 1019.9 -0.1 67
2018-11-27 16:00:00 18.9 16 Sur 22 Sur 0 1019.7 -0.5 57
2018-11-27 15:00:00 19.3 11 Sur 17 Sur 0 1019.7 -1.2 57
2018-11-27 14:00:00 18.9 10 Sudeste 15 Sudeste 0 1020 -1.2 58
2018-11-27 13:00:00 19.1 12 Sur 17 Sudoeste 0 1020.2 -0.8 50
2018-11-27 12:00:00 18.6 9 Sur 15 Sudoeste 0 1020.9 0.2 54
2018-11-27 11:00:00 17.6 7 Noroeste 24 Noroeste 0 1021.2 1 45
2018-11-27 10:00:00 14.3 19 Noroeste 32 Noroeste 0 1021 1 47
2018-11-27 09:00:00 12.3 23 Noroeste 32 Noroeste 0 1020.7 1 52
2018-11-27 08:00:00 11.2 23 Noroeste 35 Noroeste 0 1020.2 0.8 55
2018-11-27 07:00:00 12 21 Noroeste 28 Noroeste 0 1020 0.5 53
2018-11-27 06:00:00 11.9 19 Noroeste 28 Noroeste 0 1019.7 0.2 53
2018-11-27 05:00:00 11.8 17 Noroeste 28 Noroeste 0 1019.4 0.5 53
2018-11-27 04:00:00 12.6 17 Noroeste 28 Noroeste 0 1019.5 0.5 51
2018-11-27 03:00:00 14.2 18 Noroeste 30 Noroeste 0 1019.5 0.8 46
2018-11-27 02:00:00 15 22 Noroeste 32 Noroeste 0 1018.9 0.9 44
2018-11-27 01:00:00 15.1 14 Noroeste 35 Noroeste 0 1019 1.3 44
2018-11-27 00:00:00 15.9 21 Noroeste 41 Norte 0 1018.7 2.5 41
2018-11-26 23:00:00 16.6 32 Noroeste 50 Noroeste 0 1018 1.9 39
2018-11-26 22:00:00 16.5 15 Norte 59 Norte 0 1017.7 2.2 39
2018-11-26 21:00:00 16.5 41 Norte 52 Norte 0 1016.2 1.7 40
2018-11-26 20:00:00 16 15 Nordeste 33 Norte 0 1016.1 2.8 42
2018-11-26 19:00:00 17 14 Norte 37 Norte 0 1015.5 3 38
2018-11-26 18:00:00 17.8 24 Norte 42 Noroeste 0 1014.5 2.6 36
2018-11-26 17:00:00 19.3 34 Noroeste 48 Noroeste 0 1013.3 1.9 33
2018-11-26 16:00:00 20.4 26 Noroeste 50 Noroeste 0 1012.5 1.6 29
2018-11-26 15:00:00 20 14 Sudoeste 42 Noroeste 0 1011.9 1.3 50
2018-11-26 14:00:00 20.9 12 Sur 55 Noroeste 0 1011.4 0.4 41
2018-11-26 13:00:00 21.6 35 Noroeste 65 Noroeste 0 1010.9 0.9 25
2018-11-26 12:00:00 20.8 38 Noroeste 55 Noroeste 0 1010.6 1.4 24
2018-11-26 11:00:00 19.7 12 Sudeste 24 Sudoeste 0 1011 2.5 43
2018-11-26 10:00:00 18 16 Noroeste 46 Noroeste 0 1010 2.6 35
2018-11-26 09:00:00 16 32 Noroeste 52 Noroeste 0 1009.2 2.3 37
2018-11-26 08:00:00 16.6 16 Oeste 32 Noroeste 0 1008.5 2.2 40
2018-11-26 07:00:00 16.9 6 Sudoeste 28 Sur 0 1007.4 1 63
2018-11-26 06:00:00 16.2 7 Oeste 48 Sudoeste 0 1006.9 -0.3 91
2018-11-26 05:00:00 17.1 33 Sudoeste 63 Oeste 0 1006.3 -1.1 92
2018-11-26 04:00:00 17 37 Oeste 67 Sudoeste 0 1006.4 -1.7 90
2018-11-26 03:00:00 16.9 46 Sudoeste 67 Sudoeste 0 1007.2 -1.7 91
2018-11-26 02:00:00 16.9 53 Sudoeste 78 Sudoeste 0 1007.4 -1.3 89
2018-11-26 01:00:00 17.3 56 Oeste 85 Sudoeste 0 1008.1 -0.8 81
2018-11-26 00:00:00 17.6 39 Oeste 58 Oeste 0 1008.9 -0.3 79
2018-11-25 23:00:00 17.4 33 Oeste 52 Sudoeste 0 1008.7 -0.6 81
2018-11-25 22:00:00 17.4 26 Sudoeste 37 Oeste 0 1008.9 0 78
2018-11-25 21:00:00 17 29 Sudoeste 58 Sudoeste 0 1009.2 0.6 84
2018-11-25 20:00:00 16.6 32 Oeste 59 Sudoeste 0 1009.3 0.2 86
2018-11-25 19:00:00 16.6 45 Sudoeste 65 Sudoeste 0 1008.9 -0.1 90
2018-11-25 18:00:00 17.1 44 Sudoeste 67 Sudoeste 0 1008.6 -0.8 83
2018-11-25 17:00:00 17.7 36 Sudoeste 59 Sudoeste 0 1009.1 -1.2 80
2018-11-25 16:00:00 17.7 39 Sudoeste 61 Sudoeste 0 1009 -2.5 78
2018-11-25 15:00:00 17.9 42 Sudoeste 67 Sudoeste 0 1009.4 -3.1 78
2018-11-25 14:00:00 17.6 49 Sudoeste 65 Sudoeste 0 1010.3 -2.5 77
2018-11-25 13:00:00 17.1 41 Sudoeste 61 Sudoeste 0 1011.5 -0.9 81
2018-11-25 12:00:00 18.5 47 Sudoeste 65 Sudoeste 0 1012.5 0.2 68
2018-11-25 11:00:00 18.8 38 Sudoeste 52 Sudoeste 0 1012.8 0.4 63
2018-11-25 10:00:00 17.9 32 Oeste 42 Oeste 0 1012.4 0.2 63
2018-11-25 09:00:00 13 10 Oeste 28 Noroeste 0 1012.3 -0.1 65
2018-11-25 08:00:00 11.1 8 Oeste 17 Norte 0 1012.4 0 71
2018-11-25 07:00:00 9.7 6 Norte 24 Noroeste 0 1012.2 -0.7 72
2018-11-25 06:00:00 10.3 15 Noroeste 28 Noroeste 0 1012.4 -1 69
2018-11-25 05:00:00 10.8 13 Noroeste 24 Noroeste 0 1012.4 -1.4 66
2018-11-25 04:00:00 10.8 17 Noroeste 24 Noroeste 0 1012.9 -1.4 68
2018-11-25 03:00:00 11.1 12 Noroeste 21 Noroeste 0 1013.4 -1.2 68
2018-11-25 02:00:00 11 7 Norte 13 Norte 0 1013.8 -0.9 84
2018-11-25 01:00:00 11.3 9 Norte 15 Norte 0 1014.3 -0.3 76
2018-11-25 00:00:00 12.4 8 Noroeste 21 Noroeste 0 1014.6 0.1 69
2018-11-24 23:00:00 12.6 5 Oeste 18 Norte 0 1014.7 0.6 76
2018-11-24 22:00:00 13 10 Noroeste 22 Norte 0 1014.6 0.7 81
2018-11-24 21:00:00 12.3 10 Norte 13 Norte 0 1014.5 0.8 84
2018-11-24 20:00:00 13.9 8 Norte 11 Nordeste 0 1014.1 0.3 76
2018-11-24 19:00:00 15.5 9 Sudoeste 15 Sudoeste 0 1013.9 0.3 70
2018-11-24 18:00:00 16.3 13 Sudoeste 21 Sudoeste 0 1013.7 0.2 70
2018-11-24 17:00:00 17.4 16 Sudoeste 28 Sudoeste 0 1013.8 0 64
2018-11-24 16:00:00 17.2 19 Sudoeste 26 Sudoeste 0 1013.6 -1 69
2018-11-24 15:00:00 18.4 12 Sur 21 Sur 0 1013.5 -1.4 62
2018-11-24 14:00:00 18.9 13 Sur 21 Sur 0 1013.8 -1.3 58
2018-11-24 13:00:00 19.1 14 Sur 21 Sur 0 1014.6 -0.4 55
2018-11-24 12:00:00 19.1 8 Sur 18 Noroeste 0 1014.9 0.1 50
2018-11-24 11:00:00 16.4 14 Noroeste 30 Noroeste 0 1015.1 1.3 53
2018-11-24 10:00:00 13.6 20 Noroeste 33 Noroeste 0 1015 1.4 66
2018-11-24 09:00:00 12.7 22 Noroeste 32 Noroeste 0 1014.8 1.6 67
2018-11-24 08:00:00 12.1 22 Noroeste 33 Noroeste 0 1013.8 0.4 71
2018-11-24 07:00:00 12.8 19 Noroeste 30 Norte 0 1013.6 0.1 69
2018-11-24 06:00:00 13.3 18 Noroeste 24 Norte 0 1013.2 -0.2 70
2018-11-24 05:00:00 13 11 Noroeste 22 Norte 0 1013.4 -0.4 78
2018-11-24 04:00:00 12.5 17 Noroeste 28 Noroeste 0 1013.5 -0.8 81
2018-11-24 03:00:00 12 12 Norte 22 Noroeste 0 1013.4 -0.8 88
2018-11-24 02:00:00 12.4 12 Norte 17 Norte 0 1013.8 -0.1 87
2018-11-24 01:00:00 12.3 10 Noroeste 13 Noroeste 0 1014.3 0.3 93
2018-11-24 00:00:00 11.9 6 Norte 11 Sudeste 0 1014.2 -0.1 95
2018-11-23 23:00:00 12.9 9 Norte 15 Norte 0 1013.9 1 94
2018-11-23 22:00:00 13.4 8 Norte 11 Norte 0 1014 1.8 93
2018-11-23 21:00:00 13.7 6 Oeste 13 Noroeste 0 1014.3 2.1 93
2018-11-23 20:00:00 14.1 3 Norte 8 Sudoeste 0 1012.9 1.2 91
2018-11-23 19:00:00 15.8 6 Oeste 13 Sudoeste 0 1012.2 0.5 85
2018-11-23 18:00:00 16.3 8 Oeste 13 Oeste 0 1012.2 0.8 85
2018-11-23 17:00:00 17.4 11 Sudoeste 22 Sudoeste 0 1011.7 0.2 80
2018-11-23 16:00:00 17.4 19 Sudoeste 28 Sudoeste 0 1011.7 -0.8 83
2018-11-23 15:00:00 17.6 16 Sudoeste 22 Sudoeste 0 1011.4 -1.3 82
2018-11-23 14:00:00 17.1 12 Sudoeste 24 Sudoeste 0 1011.5 -1.1 82
2018-11-23 13:00:00 17.4 9 Sudoeste 21 Oeste 0 1012.5 0.4 81
2018-11-23 12:00:00 16.6 15 Oeste 33 Oeste 0 1012.7 1.7 84
2018-11-23 11:00:00 17.8 17 Sudoeste 33 Sudoeste 0 1012.6 2.1 76
2018-11-23 10:00:00 16.6 15 Sudoeste 22 Sudoeste 0 1012.1 1.8 79
2018-11-23 09:00:00 14.6 8 Norte 15 Norte 0 1011 0.7 87
2018-11-23 08:00:00 15 12 Noroeste 18 Noroeste 0 1010.5 1 75
2018-11-23 07:00:00 15.5 7 Oeste 22 Noroeste 0 1010.3 0.4 73
2018-11-23 06:00:00 15.1 16 Noroeste 22 Noroeste 0 1010.3 -0.4 71
2018-11-23 05:00:00 15 11 Norte 32 Noroeste 0 1009.5 -1.5 72
2018-11-23 04:00:00 15.2 18 Norte 33 Noroeste 0 1009.9 -1.7 70
2018-11-23 03:00:00 15.1 20 Noroeste 30 Noroeste 0 1010.7 -1.8 68
2018-11-23 02:00:00 14.9 19 Noroeste 28 Noroeste 0 1011 -1.8 69
2018-11-23 01:00:00 14.9 17 Noroeste 24 Noroeste 0 1011.6 -1.2 70
2018-11-23 00:00:00 15 14 Noroeste 21 Noroeste 0 1012.5 -0.7 70
2018-11-22 23:00:00 15 13 Noroeste 22 Noroeste 0 1012.8 0.1 70
2018-11-22 22:00:00 15.3 8 Noroeste 17 Noroeste 0 1012.8 0.4 70
2018-11-22 21:00:00 16.2 10 Noroeste 15 Norte 0 1013.2 1.2 65
2018-11-22 20:00:00 17.2 13 Nordeste 30 Nordeste 0 1012.7 0.4 57
2018-11-22 19:00:00 16 11 Nordeste 17 Nordeste 0 1012.4 0.1 73
2018-11-22 18:00:00 16.9 14 Nordeste 22 Nordeste 0 1012 -0.4 72
2018-11-22 17:00:00 17.8 6 Este 11 Este 0 1012.3 -0.4 70
2018-11-22 16:00:00 18.3 7 Sur 15 Sur 0 1012.3 -1.4 73
2018-11-22 15:00:00 19.8 8 Este 18 Este 0 1012.4 -2.5 60
2018-11-22 14:00:00 19.6 10 Nordeste 21 Noroeste 0 1012.7 -2.4 57
2018-11-22 13:00:00 18.4 14 Noroeste 24 Noroeste 0 1013.7 -1.7 59
2018-11-22 12:00:00 17.8 13 Noroeste 24 Noroeste 0 1014.9 0.9 63
2018-11-22 11:00:00 15.7 13 Noroeste 22 Norte 0 1015.1 1.5 75
2018-11-22 10:00:00 14.6 4 Norte 18 Norte 0 1015.4 1.8 77
2018-11-22 09:00:00 14.9 10 Noroeste 18 Norte 0 1014 0.4 72
2018-11-22 08:00:00 14.1 9 Norte 22 Norte 0 1013.6 -0.1 86
2018-11-22 07:00:00 14.6 8 Nordeste 22 Norte 0 1013.6 -0.3 81
2018-11-22 06:00:00 13.9 11 Norte 24 Norte 0 1013.6 -0.3 83
2018-11-22 05:00:00 13.5 8 Norte 13 Norte 0 1013.7 0.1 91
2018-11-22 04:00:00 13.7 6 Nordeste 13 Norte 0 1013.9 0.2 93
2018-11-22 03:00:00 14.1 5 Norte 11 Oeste 0 1013.9 0.4 94
2018-11-22 02:00:00 14.5 0 Calma 11 Nordeste 0 1013.6 0 92
2018-11-22 01:00:00 15.1 11 Oeste 30 Sudoeste 0 1013.7 0.4 90
2018-11-22 00:00:00 15.4 19 Sudoeste 41 Sudoeste 0 1013.5 0.6 87
2018-11-21 23:00:00 16.3 29 Sudoeste 41 Sudoeste 0 1013.6 1.2 81
2018-11-21 22:00:00 16 19 Sudoeste 26 Sudoeste 0 1013.3 1.3 80
2018-11-21 21:00:00 16 14 Oeste 26 Oeste 0 1012.9 1.6 79
2018-11-21 20:00:00 16.7 17 Sudoeste 26 Oeste 0 1012.4 1.2 79
2018-11-21 19:00:00 16.4 23 Oeste 30 Oeste 0 1012 0.7 83
2018-11-21 18:00:00 16.9 20 Sudoeste 30 Sudoeste 0 1011.3 0.1 86
2018-11-21 17:00:00 17.3 21 Sudoeste 33 Sudoeste 0 1011.2 -0.3 82
2018-11-21 16:00:00 18.2 24 Sudoeste 35 Sudoeste 0 1011.3 -0.7 79
2018-11-21 15:00:00 17.6 27 Sudoeste 39 Sudoeste 0 1011.2 -1.1 78
2018-11-21 14:00:00 16.9 26 Sudoeste 37 Sudoeste 0 1011.5 -1.1 85
2018-11-21 13:00:00 17.3 29 Sudoeste 37 Sudoeste 0 1012 0.2 83
2018-11-21 12:00:00 17.1 21 Sudoeste 42 Sudoeste 0 1012.3 1.1 77
2018-11-21 11:00:00 16.6 26 Sudoeste 35 Sudoeste 0 1012.6 1.8 81
2018-11-21 10:00:00 14.8 3 Noroeste 18 Noroeste 0 1011.8 1.5 73
2018-11-21 09:00:00 13.4 9 Noroeste 21 Noroeste 0 1011.2 1.5 79
2018-11-21 08:00:00 12.2 11 Noroeste 21 Noroeste 0 1010.8 1.2 81
2018-11-21 07:00:00 12.3 12 Noroeste 28 Oeste 0 1010.3 0.6 83
2018-11-21 06:00:00 15 22 Oeste 35 Oeste 0 1009.7 0.4 93
2018-11-21 05:00:00 15.3 28 Sudoeste 48 Oeste 0.3 1009.6 0.8 94
2018-11-21 04:00:00 15.6 35 Sudoeste 54 Sudoeste 0.1 1009.7 1.2 92
2018-11-21 03:00:00 15.9 33 Sudoeste 54 Sudoeste 0 1009.3 0.9 89
2018-11-21 02:00:00 16.3 37 Sudoeste 50 Oeste 0 1008.8 0.8 85
2018-11-21 01:00:00 15.8 21 Oeste 32 Sudoeste 0 1008.5 1.4 78
2018-11-21 00:00:00 16.2 22 Sudoeste 37 Sudoeste 0 1008.4 2.6 74
2018-11-20 23:00:00 16 10 Oeste 35 Sudoeste 0 1008 2.8 63
2018-11-20 22:00:00 15 8 Oeste 50 Oeste 0 1007.1 3 57
2018-11-20 21:00:00 16.6 26 Oeste 42 Oeste 0 1005.8 3.1 71
2018-11-20 20:00:00 16.5 21 Sudoeste 45 Oeste 0 1005.2 3.5 56
2018-11-20 19:00:00 16.8 19 Oeste 45 Sudoeste 0 1004.1 3.2 53
2018-11-20 18:00:00 17.7 30 Sudoeste 46 Oeste 0 1002.7 1.3 63
2018-11-20 17:00:00 17.8 33 Sudoeste 61 Sudoeste 0 1001.7 -0.7 79
2018-11-20 16:00:00 17.3 47 Sudoeste 68 Sudoeste 0 1000.9 -2.3 84
2018-11-20 15:00:00 16.8 22 Sudoeste 32 Sudoeste 0.5 1001.4 -2.4 89
2018-11-20 14:00:00 14.7 14 Sudoeste 33 Sudoeste 1.8 1002.4 -1.3 95
2018-11-20 13:00:00 16.3 26 Sudoeste 46 Sudoeste 0 1003.2 0.4 81
2018-11-20 12:00:00 16.6 31 Sudoeste 45 Sudoeste 0 1003.8 1.2 75
2018-11-20 11:00:00 17.8 28 Sudoeste 45 Sudoeste 0 1003.7 1.6 62
2018-11-20 10:00:00 16.8 6 Oeste 21 Sudoeste 0 1002.8 1 64
2018-11-20 09:00:00 12.6 9 Noroeste 18 Noroeste 0 1002.6 1.3 80
2018-11-20 08:00:00 11 5 Nordeste 13 Noroeste 0 1002.1 1.3 87
2018-11-20 07:00:00 10.6 3 Noroeste 15 Noroeste 0 1001.8 0.7 87
2018-11-20 06:00:00 11.6 12 Norte 15 Norte 0 1001.3 0.2 84
2018-11-20 05:00:00 11.5 9 Norte 13 Norte 0 1000.8 -0.1 88
2018-11-20 04:00:00 12.1 2 Noroeste 11 Norte 0 1001.1 0.1 86
2018-11-20 03:00:00 12.7 7 Noroeste 11 Norte 0 1001.1 0.3 85
2018-11-20 02:00:00 14 9 Noroeste 17 Noroeste 0 1000.9 0 81
2018-11-20 01:00:00 14.6 11 Oeste 15 Oeste 0 1001 0.2 83
2018-11-20 00:00:00 15.7 4 Noroeste 18 Oeste 0 1000.8 0.4 77
2018-11-19 23:00:00 15.8 7 Oeste 21 Oeste 0 1000.9 1.1 80
2018-11-19 22:00:00 15.7 9 Sudoeste 18 Oeste 0 1000.8 1.5 83
2018-11-19 21:00:00 16.1 16 Oeste 26 Oeste 0 1000.4 1.8 81
2018-11-19 20:00:00 16.1 9 Oeste 17 Oeste 0 999.8 1.7 85
2018-11-19 19:00:00 16.1 15 Oeste 33 Oeste 0 999.3 1.8 84
2018-11-19 18:00:00 16.5 24 Sudoeste 45 Sudoeste 0 998.6 1.3 83
2018-11-19 17:00:00 16.9 31 Sudoeste 50 Oeste 0 998.1 0.5 82
2018-11-19 16:00:00 17.9 35 Sudoeste 48 Sudoeste 0 997.5 -0.5 75
2018-11-19 15:00:00 18.8 35 Sudoeste 50 Sudoeste 0 997.3 -1.3 70
2018-11-19 14:00:00 18.6 33 Sudoeste 48 Oeste 0 997.6 -1.4 71
2018-11-19 13:00:00 17.6 32 Sudoeste 42 Sudoeste 0 998 -0.8 75
2018-11-19 12:00:00 17.4 29 Sudoeste 39 Sudoeste 0 998.6 0.2 77
2018-11-19 11:00:00 16 25 Sudoeste 33 Sudoeste 0 999 0.9 83
2018-11-19 10:00:00 14.8 17 Sudoeste 39 Sudoeste 0 998.8 0.8 84
2018-11-19 09:00:00 14.6 28 Sudoeste 42 Oeste 0 998.4 0.5 80
2018-11-19 08:00:00 13.9 18 Sudoeste 30 Sudoeste 0 998.1 0.1 82
2018-11-19 07:00:00 12.8 13 Oeste 22 Sudoeste 0 998 0.1 91
2018-11-19 06:00:00 13.6 6 Oeste 13 Oeste 0 997.9 -0.6 88
2018-11-19 05:00:00 13.6 9 Noroeste 15 Noroeste 0 998 -1 93
2018-11-19 04:00:00 13.6 4 Noroeste 9 Norte 0 997.9 -1.4 96
2018-11-19 03:00:00 14.1 4 Norte 17 Norte 0 998.5 -1.2 93
2018-11-19 02:00:00 13.5 8 Norte 11 Norte 0 999 -0.4 93
2018-11-19 01:00:00 13.9 10 Norte 21 Norte 0.2 999.3 -0.4 89
2018-11-19 00:00:00 14 9 Norte 24 Noroeste 0.8 999.7 0.4 93
2018-11-18 23:00:00 13 19 Norte 35 Noroeste 3.9 999.4 -0.5 98
2018-11-18 22:00:00 15.2 15 Nordeste 24 Este 0 999.7 0.1 85
2018-11-18 21:00:00 15.6 17 Este 28 Sudeste 0 999.3 -0.1 81
2018-11-18 20:00:00 17 16 Este 30 Este 0 999.9 0.3 77
2018-11-18 19:00:00 17.7 18 Nordeste 33 Nordeste 0 999.6 -0.4 70
2018-11-18 18:00:00 17.9 17 Nordeste 48 Nordeste 0 999.4 -1.1 64
2018-11-18 17:00:00 18.2 30 Nordeste 48 Nordeste 0 999.6 -1.3 61
2018-11-18 16:00:00 18.9 31 Nordeste 48 Este 0 1000 -1.5 59
2018-11-18 15:00:00 19.2 27 Nordeste 41 Nordeste 0 1000.5 -2.1 60
2018-11-18 14:00:00 19.3 34 Nordeste 48 Nordeste 0 1000.9 -2.5 59
2018-11-18 13:00:00 20.2 37 Nordeste 52 Este 0 1001.5 -2 56
2018-11-18 12:00:00 19.8 31 Nordeste 46 Nordeste 0 1002.6 -0.6 56
2018-11-18 11:00:00 19.2 28 Nordeste 46 Nordeste 0 1003.4 0.1 57
2018-11-18 10:00:00 18.6 26 Nordeste 45 Nordeste 0 1003.5 0 60
2018-11-18 09:00:00 18 24 Nordeste 39 Nordeste 0 1003.2 -0.7 60
2018-11-18 08:00:00 17.7 24 Nordeste 39 Norte 0 1003.3 -1.2 59
2018-11-18 07:00:00 17.5 20 Nordeste 32 Nordeste 0 1003.5 -2.1 62
2018-11-18 06:00:00 17.4 21 Nordeste 35 Nordeste 0 1003.9 -3.1 63
2018-11-18 05:00:00 16.8 14 Nordeste 30 Norte 0 1004.5 -3.2 64
2018-11-18 04:00:00 16.4 17 Nordeste 32 Nordeste 0 1005.6 -2.8 77
2018-11-18 03:00:00 16.8 17 Nordeste 28 Nordeste 0 1007 -1.6 78
2018-11-18 02:00:00 16.9 18 Nordeste 26 Nordeste 0 1007.7 -1.2 81
2018-11-18 01:00:00 17.1 17 Nordeste 30 Nordeste 0 1008.4 -1 80
2018-11-18 00:00:00 17.3 20 Nordeste 30 Nordeste 0 1008.6 -1.1 78
2018-11-17 23:00:00 17.1 13 Nordeste 26 Norte 0 1008.9 -1.1 74
2018-11-17 22:00:00 16.9 15 Nordeste 26 Nordeste 0 1009.4 -0.9 74
2018-11-17 21:00:00 16.9 15 Nordeste 22 Nordeste 0 1009.7 -0.5 80
2018-11-17 20:00:00 16.6 15 Nordeste 24 Nordeste 0 1010 0 83
2018-11-17 19:00:00 17.1 16 Este 28 Este 0 1010.3 0.1 82
2018-11-17 18:00:00 18.3 22 Este 33 Nordeste 0 1010.2 -0.2 75
2018-11-17 17:00:00 20 29 Este 39 Este 0 1010 -0.7 65
2018-11-17 16:00:00 21.1 28 Este 42 Este 0 1010.2 -1.2 58
2018-11-17 15:00:00 21.4 25 Este 46 Este 0 1010.4 -2.1 60
2018-11-17 14:00:00 22.1 29 Este 45 Este 0 1010.7 -1.9 57
2018-11-17 13:00:00 21.1 25 Nordeste 37 Nordeste 0 1011.4 -1.3 62
2018-11-17 12:00:00 21.3 28 Nordeste 46 Nordeste 0 1012.5 -0.1 60
2018-11-17 11:00:00 20.9 28 Nordeste 41 Nordeste 0 1012.6 0.3 62
2018-11-17 10:00:00 20.1 23 Nordeste 35 Nordeste 0 1012.7 0.2 64
2018-11-17 09:00:00 16.8 11 Norte 17 Norte 0 1012.6 0.3 77
2018-11-17 08:00:00 15 9 Norte 17 Noroeste 0 1012.3 -0.1 83
2018-11-17 07:00:00 16 10 Norte 18 Norte 0 1012.5 -0.3 79
2018-11-17 06:00:00 16.2 12 Noroeste 22 Nordeste 0 1012.3 -0.7 78
2018-11-17 05:00:00 16.6 0 Calma 15 Noroeste 0 1012.4 -0.3 72
2018-11-17 04:00:00 17 10 Noroeste 21 Nordeste 0 1012.8 -0.1 71
2018-11-17 03:00:00 18.2 9 Norte 28 Norte 0 1013 -0.1 71
2018-11-17 02:00:00 18.6 14 Nordeste 33 Nordeste 0 1012.7 -0.7 70
2018-11-17 01:00:00 18.6 6 Nordeste 24 Nordeste 0 1012.9 -0.4 67
2018-11-17 00:00:00 19 14 Nordeste 33 Nordeste 0 1013.1 -0.1 68
2018-11-16 23:00:00 18.9 18 Nordeste 28 Norte 0 1013.4 0.1 69
2018-11-16 22:00:00 18.2 10 Nordeste 30 Nordeste 0 1013.3 0.3 71
2018-11-16 21:00:00 19.1 20 Nordeste 32 Nordeste 0 1013.2 0.2 71
2018-11-16 20:00:00 19.4 17 Nordeste 33 Nordeste 0 1013.3 0.6 70
2018-11-16 19:00:00 18.8 20 Nordeste 35 Nordeste 0 1013 0.1 74
2018-11-16 18:00:00 19.1 24 Nordeste 41 Este 0 1013 0 78
2018-11-16 17:00:00 20.5 28 Nordeste 42 Este 0 1012.7 -0.8 72
2018-11-16 16:00:00 21.1 27 Nordeste 41 Este 0 1012.9 -1.3 66
2018-11-16 15:00:00 21.2 30 Nordeste 45 Nordeste 0 1013 -1.7 64
2018-11-16 14:00:00 21.5 30 Nordeste 45 Nordeste 0 1013.5 -1.8 67
2018-11-16 13:00:00 21.6 28 Nordeste 35 Este 0 1014.2 -1.1 61
2018-11-16 12:00:00 21.7 24 Nordeste 33 Nordeste 0 1014.7 -0.4 63
2018-11-16 11:00:00 20 18 Este 28 Nordeste 0 1015.3 0.6 71
2018-11-16 10:00:00 18.1 12 Norte 30 Noroeste 0 1015.3 0.8 67
2018-11-16 09:00:00 16.5 20 Noroeste 30 Noroeste 0 1015.1 0.7 71
2018-11-16 08:00:00 16.3 22 Noroeste 32 Noroeste 0 1014.7 0.1 72
2018-11-16 07:00:00 15.8 19 Noroeste 32 Noroeste 0 1014.5 -0.2 74
2018-11-16 06:00:00 15.3 14 Norte 30 Noroeste 0 1014.4 -0.4 78
2018-11-16 05:00:00 15.5 21 Noroeste 30 Noroeste 0 1014.6 -0.2 77
2018-11-16 04:00:00 15.5 19 Noroeste 32 Noroeste 0 1014.7 -0.6 79
2018-11-16 03:00:00 15.7 18 Noroeste 26 Noroeste 0 1014.8 -0.6 80
2018-11-16 02:00:00 16.2 17 Noroeste 26 Noroeste 0 1014.8 -0.5 79
2018-11-16 01:00:00 15.8 14 Norte 24 Noroeste 0 1015.3 0.2 82
2018-11-16 00:00:00 16 17 Noroeste 24 Noroeste 0 1015.4 0.7 82
2018-11-15 23:00:00 16.2 12 Norte 21 Noroeste 0 1015.3 0.9 82
2018-11-15 22:00:00 16.4 12 Norte 17 Norte 0 1015.1 1.3 82
2018-11-15 21:00:00 16.7 6 Norte 18 Nordeste 0 1014.7 1.5 82
2018-11-15 20:00:00 16.3 12 Nordeste 15 Este 0 1014.4 1.4 87
2018-11-15 19:00:00 17.2 12 Este 28 Este 0 1013.8 1.2 84
2018-11-15 18:00:00 18.6 19 Este 32 Este 0 1013.2 0.7 76
2018-11-15 17:00:00 20.1 23 Este 33 Este 0 1013 0.3 67
2018-11-15 16:00:00 20.2 26 Este 37 Este 0 1012.6 -0.2 67
2018-11-15 15:00:00 20.8 25 Este 37 Este 0 1012.5 -0.8 65
2018-11-15 14:00:00 21.2 19 Este 33 Este 0 1012.7 -0.5 61
2018-11-15 13:00:00 22.1 20 Nordeste 33 Este 0 1012.8 0.2 58
2018-11-15 12:00:00 22.1 26 Este 41 Este 0 1013.3 0.6 57
2018-11-15 11:00:00 20.8 28 Nordeste 41 Nordeste 0 1013.2 1 61
2018-11-15 10:00:00 20 35 Nordeste 46 Nordeste 0 1012.6 1.6 66
2018-11-15 09:00:00 19 22 Nordeste 35 Nordeste 0 1012.7 2 69
2018-11-15 08:00:00 16.9 8 Norte 18 Norte 0 1012.2 1.7 72
2018-11-15 07:00:00 17.2 14 Noroeste 21 Noroeste 0 1011 0.2 71
2018-11-15 06:00:00 17.6 12 Norte 22 Noroeste 0 1010.7 -0.6 70
2018-11-15 05:00:00 17.6 13 Noroeste 30 Noroeste 0 1010.5 -1.8 72
2018-11-15 04:00:00 17.7 21 Noroeste 35 Noroeste 0 1010.8 -1.6 76
2018-11-15 03:00:00 17.9 21 Noroeste 30 Noroeste 0 1011.3 -0.9 77
2018-11-15 02:00:00 19.3 13 Nordeste 42 Nordeste 0 1012.3 -0.8 71
2018-11-15 01:00:00 20.1 37 Nordeste 48 Nordeste 0 1012.4 -0.8 66
2018-11-15 00:00:00 20.3 24 Nordeste 45 Nordeste 0 1012.2 -1.6 59
2018-11-14 23:00:00 19.9 27 Nordeste 46 Nordeste 0 1013.1 -0.6 62
2018-11-14 22:00:00 20.6 34 Nordeste 52 Nordeste 0 1013.2 -0.8 58
2018-11-14 21:00:00 20.9 31 Nordeste 46 Nordeste 0 1013.8 -0.1 56
2018-11-14 20:00:00 20.8 32 Nordeste 48 Nordeste 0 1013.7 -0.8 56
2018-11-14 19:00:00 20.9 28 Nordeste 42 Nordeste 0 1014 -0.4 58
2018-11-14 18:00:00 20.7 26 Nordeste 45 Nordeste 0 1013.9 -0.5 59
2018-11-14 17:00:00 21.4 30 Nordeste 45 Nordeste 0 1014.5 -0.9 61
2018-11-14 16:00:00 21.8 28 Nordeste 46 Nordeste 0 1014.4 -1.7 60
2018-11-14 15:00:00 23.3 33 Nordeste 50 Nordeste 0 1014.4 -2.7 57
2018-11-14 14:00:00 21.7 31 Nordeste 46 Nordeste 0 1015.4 -2.1 62
2018-11-14 13:00:00 21.1 31 Nordeste 54 Nordeste 0 1016.1 -1.4 64
2018-11-14 12:00:00 21 38 Nordeste 52 Nordeste 0 1017.1 -0.3 65
2018-11-14 11:00:00 21 35 Nordeste 54 Nordeste 0 1017.5 0.4 64
2018-11-14 10:00:00 19.6 36 Nordeste 55 Nordeste 0 1017.5 0.5 69
2018-11-14 09:00:00 19.6 37 Nordeste 55 Nordeste 0 1017.4 0.2 68
2018-11-14 08:00:00 19.3 30 Nordeste 54 Nordeste 0 1017.1 0.2 67
2018-11-14 07:00:00 19.5 32 Nordeste 54 Nordeste 0 1017 -0.2 66
2018-11-14 06:00:00 19.9 18 Nordeste 52 Nordeste 0 1017.2 -0.6 62
2018-11-14 05:00:00 20.1 36 Nordeste 55 Nordeste 0 1016.9 -1.4 58
2018-11-14 04:00:00 20.3 29 Nordeste 45 Nordeste 0 1017.2 -1.7 58
2018-11-14 03:00:00 20.5 29 Nordeste 45 Nordeste 0 1017.8 -1.7 55
2018-11-14 02:00:00 20.2 28 Nordeste 45 Nordeste 0 1018.3 -1.2 60
2018-11-14 01:00:00 20.2 12 Norte 39 Nordeste 0 1018.9 -0.3 56
2018-11-14 00:00:00 19.4 20 Nordeste 35 Nordeste 0 1019.5 0.5 65
2018-11-13 23:00:00 19.1 8 Norte 17 Nordeste 0 1019.5 0.5 67
2018-11-13 22:00:00 19.1 10 Norte 22 Nordeste 0 1019.2 0.1 64
2018-11-13 21:00:00 18.1 4 Norte 30 Nordeste 0 1019 0.6 71
2018-11-13 20:00:00 18.9 15 Nordeste 37 Nordeste 0 1019 1.2 70
2018-11-13 19:00:00 18.6 21 Nordeste 41 Nordeste 0 1019.1 1.5 73
2018-11-13 18:00:00 19.7 29 Este 46 Nordeste 0 1018.4 1.1 69
2018-11-13 17:00:00 20.5 37 Nordeste 52 Nordeste 0 1017.8 0.4 66
2018-11-13 16:00:00 21.3 34 Nordeste 50 Nordeste 0 1017.6 -0.8 62
2018-11-13 15:00:00 21.8 34 Nordeste 52 Nordeste 0 1017.3 -1.4 60
2018-11-13 14:00:00 22.3 35 Nordeste 54 Nordeste 0 1017.4 -1.5 55
2018-11-13 13:00:00 21.9 30 Nordeste 46 Este 0 1018.4 -0.3 58
2018-11-13 12:00:00 22.3 30 Este 42 Nordeste 0 1018.7 0.5 53
2018-11-13 11:00:00 21.8 27 Este 37 Este 0 1018.9 1.4 54
2018-11-13 10:00:00 18.8 11 Noroeste 24 Norte 0 1018.7 1.8 58
2018-11-13 09:00:00 15.9 14 Norte 28 Noroeste 0 1018.2 1.6 66
2018-11-13 08:00:00 15 20 Noroeste 32 Noroeste 0 1017.5 1.1 67
2018-11-13 07:00:00 14.7 20 Norte 30 Noroeste 0 1016.9 0.8 73
2018-11-13 06:00:00 14.7 17 Norte 26 Noroeste 0 1016.6 0.6 77
2018-11-13 05:00:00 14.8 17 Noroeste 24 Noroeste 0 1016.4 0.4 77
2018-11-13 04:00:00 15.3 18 Noroeste 26 Norte 0 1016.1 0.4 76
2018-11-13 03:00:00 15.5 13 Noroeste 21 Noroeste 0 1016 0.1 78
2018-11-13 02:00:00 15.5 14 Noroeste 21 Noroeste 0 1016 0.5 79
2018-11-13 01:00:00 14.9 10 Norte 15 Norte 0 1015.7 0 83
2018-11-13 00:00:00 15.1 9 Norte 11 Norte 0 1015.9 0.7 85
2018-11-12 23:00:00 15.2 6 Norte 21 Norte 0 1015.5 0.9 85
2018-11-12 22:00:00 15.8 10 Norte 13 Norte 0 1015.7 1.8 82
2018-11-12 21:00:00 15.6 9 Nordeste 13 Nordeste 0 1015.2 1.7 86
2018-11-12 20:00:00 15.2 6 Norte 13 Oeste 0 1014.6 2.2 88
2018-11-12 19:00:00 16.8 9 Oeste 21 Oeste 0 1013.9 1.3 88
2018-11-12 18:00:00 17.7 10 Sudoeste 13 Sudoeste 0 1013.5 1 86
2018-11-12 17:00:00 19.2 3 Oeste 13 Sudoeste 0 1012.4 0 71
2018-11-12 16:00:00 18.6 11 Sudoeste 15 Sudoeste 0 1012.6 0 82
2018-11-12 15:00:00 19 11 Sudoeste 18 Sudoeste 0 1012.5 -0.8 79
2018-11-12 14:00:00 19.2 11 Sudoeste 17 Sudoeste 0 1012.4 -1 73
2018-11-12 13:00:00 19.5 9 Sur 13 Sur 0 1012.6 -0.7 70
2018-11-12 12:00:00 19.4 4 Nordeste 11 Sudeste 0 1013.3 0.4 61
2018-11-12 11:00:00 17.9 8 Noroeste 17 Noroeste 0 1013.4 1.5 56
2018-11-12 10:00:00 15.3 4 Norte 11 Noroeste 0 1013.3 1.9 79
2018-11-12 09:00:00 12.8 4 Sudeste 15 Norte 0 1012.9 1.5 86
2018-11-12 08:00:00 11.3 10 Norte 22 Norte 0 1011.9 0.8 87
2018-11-12 07:00:00 11.2 10 Norte 13 Norte 0 1011.4 0.2 87
2018-11-12 06:00:00 10.9 7 Nordeste 13 Norte 0 1011.4 -0.2 91
2018-11-12 05:00:00 11.1 5 Norte 11 Norte 0 1011.1 -0.4 89
2018-11-12 04:00:00 11.6 9 Norte 11 Norte 0 1011.2 -0.3 89
2018-11-12 03:00:00 11.5 3 Norte 11 Noroeste 0 1011.6 0.2 90
2018-11-12 02:00:00 11.4 6 Noroeste 11 Nordeste 0 1011.5 -0.7 90
2018-11-12 01:00:00 12.1 3 Este 15 Norte 0 1011.5 -0.2 96
2018-11-12 00:00:00 13.4 11 Noroeste 13 Noroeste 0 1011.4 0.1 96
2018-11-11 23:00:00 13.6 10 Noroeste 13 Noroeste 0 1012.2 0.7 91
2018-11-11 22:00:00 13.2 6 Oeste 11 Nordeste 0 1011.7 0.4 90
2018-11-11 21:00:00 14.1 8 Norte 13 Nordeste 0 1011.3 0.1 88
2018-11-11 20:00:00 14.1 3 Nordeste 13 Oeste 0 1011.5 0 93
2018-11-11 19:00:00 15.6 4 Noroeste 8 Noroeste 0 1011.3 0 93
2018-11-11 18:00:00 17.4 4 Sur 11 Sudoeste 0 1011.2 -0.6 86
2018-11-11 17:00:00 18.4 9 Sudoeste 13 Sudoeste 0 1011.5 -1.3 83
2018-11-11 16:00:00 18.8 10 Sur 13 Sur 0 1011.3 -2.5 82
2018-11-11 15:00:00 19 8 Sur 13 Sur 0 1011.8 -2.9 80
2018-11-11 14:00:00 18.8 10 Sur 13 Sur 0 1012.8 -2 82
2018-11-11 13:00:00 18.6 9 Sudoeste 15 Sudoeste 0 1013.8 -1.2 79
2018-11-11 12:00:00 18.7 8 Sur 13 Sur 0 1014.7 -0.3 70
2018-11-11 11:00:00 18.3 10 Sur 13 Sur 0 1014.8 0.3 64
2018-11-11 10:00:00 16.4 5 Norte 11 Norte 0 1015 0.7 65
2018-11-11 09:00:00 14.4 7 Norte 15 Norte 0 1015 1.1 80
2018-11-11 08:00:00 12.7 12 Norte 17 Norte 0 1014.5 0.7 98
2018-11-11 07:00:00 11.3 4 Nordeste 9 Noroeste 0 1014.3 0.2 95
2018-11-11 06:00:00 11.7 4 Noroeste 11 Norte 0 1013.9 -0.5 95
2018-11-11 05:00:00 12.3 8 Norte 11 Norte 0 1013.8 -0.6 93
2018-11-11 04:00:00 11.8 2 Noroeste 11 Norte 0 1014.1 -0.5 95
2018-11-11 03:00:00 12.9 7 Norte 11 Norte 0 1014.4 -0.3 95
2018-11-11 02:00:00 13.2 8 Norte 13 Norte 0 1014.4 -0.4 95
2018-11-11 01:00:00 13.1 8 Norte 9 Norte 0 1014.6 -0.2 92
2018-11-11 00:00:00 13.7 8 Norte 9 Norte 0 1014.7 0.2 92
2018-11-10 23:00:00 14.1 5 Norte 9 Norte 0 1014.8 0.5 92
2018-11-10 22:00:00 14.2 7 Norte 9 Norte 0 1014.8 0.8 91
2018-11-10 21:00:00 14.9 4 Sudoeste 11 Sudoeste 0 1014.5 0.7 90
2018-11-10 20:00:00 15.9 8 Sudoeste 22 Sudoeste 0 1014.3 0.8 88
2018-11-10 19:00:00 16.4 16 Sudoeste 24 Sudoeste 0 1014 0.3 85
2018-11-10 18:00:00 17 17 Sudoeste 24 Sudoeste 0 1013.8 -0.2 82
2018-11-10 17:00:00 18.4 9 Sur 24 Sudoeste 0 1013.5 -1 65
2018-11-10 16:00:00 17.6 14 Sudoeste 26 Sudoeste 0 1013.7 -1.7 78
2018-11-10 15:00:00 17.8 18 Sudoeste 26 Sudoeste 0 1014 -2.2 75
2018-11-10 14:00:00 18.1 16 Sudoeste 26 Sudoeste 0 1014.5 -2 73
2018-11-10 13:00:00 18.1 8 Sur 13 Sur 0 1015.4 -- 68
2018-11-10 12:00:00 17.5 8 Sur 15 Sudoeste 0 1016.2 -0.2 62
2018-11-10 11:00:00 18 10 Sudoeste 15 Sudoeste 0 1016.5 0.5 53
2018-11-10 10:00:00 -- -- -- 21 Noroeste 0 -- -- --
2018-11-10 09:00:00 13.5 11 Noroeste 18 Noroeste 0 1016.4 0.5 56
2018-11-10 08:00:00 12.5 13 Noroeste 17 Noroeste 0 1016 0.3 59
2018-11-10 07:00:00 12.3 11 Noroeste 17 Norte 0 1015.9 -0.1 58
2018-11-10 06:00:00 12.7 11 Noroeste 17 Norte 0 1015.9 -0.2 57
2018-11-10 05:00:00 11.9 10 Norte 13 Norte 0 1015.7 -0.4 61
2018-11-10 04:00:00 11.4 12 Norte 15 Norte 0 1016 -0.7 64
2018-11-10 03:00:00 12.9 5 Nordeste 9 Nordeste 0 1016.1 -1.2 63
2018-11-10 02:00:00 14.2 6 Norte 18 Este 0 1016.1 -1.5 54
2018-11-10 01:00:00 14.5 13 Nordeste 17 Norte 0 1016.7 -0.8 58
2018-11-10 00:00:00 13.6 10 Norte 15 Norte 0 1017.3 -0.2 69
2018-11-09 23:00:00 14.4 12 Norte 17 Nordeste 0 1017.6 0.3 75
2018-11-09 22:00:00 14 10 Nordeste 22 Nordeste 0 1017.5 1 82
2018-11-09 21:00:00 13.9 11 Nordeste 17 Nordeste 0 1017.5 1.6 75
2018-11-09 20:00:00 13.9 11 Nordeste 15 Este 0 1017.3 1.7 81
2018-11-09 19:00:00 15.2 5 Noroeste 18 Oeste 0 1016.5 1 76
2018-11-09 18:00:00 16.4 14 Sudoeste 26 Sudoeste 0 1015.9 0.3 78
2018-11-09 17:00:00 17 16 Sudoeste 26 Sudoeste 0 1015.6 -0.4 75
2018-11-09 16:00:00 18.4 18 Sudoeste 30 Sudoeste 0 1015.5 -0.9 69
2018-11-09 15:00:00 18.5 22 Sudoeste 32 Sudoeste 0 1015.6 -1.4 66
2018-11-09 14:00:00 18.8 21 Sur 32 Sur 0 1016 -1.1 61
2018-11-09 13:00:00 18.3 22 Sudoeste 32 Sudoeste 0 1016.4 -0.9 59
2018-11-09 12:00:00 20.8 18 Oeste 35 Noroeste 0 1017 -0.1 32
2018-11-09 11:00:00 19 19 Oeste 48 Oeste 0 1017.1 0.6 32
2018-11-09 10:00:00 17.4 37 Noroeste 55 Noroeste 0 1017.3 1.1 33
2018-11-09 09:00:00 15.6 27 Noroeste 55 Sudoeste 0 1017.1 1.8 38
2018-11-09 08:00:00 14.5 26 Oeste 50 Noroeste 0 1016.5 1.7 40
2018-11-09 07:00:00 15.2 28 Noroeste 42 Noroeste 0 1016.2 2 35
2018-11-09 06:00:00 14.7 10 Oeste 30 Oeste 0 1015.3 0.9 47
2018-11-09 05:00:00 15 11 Oeste 30 Noroeste 0 1014.8 1 52
2018-11-09 04:00:00 15.2 14 Noroeste 26 Noroeste 0 1014.2 0 56
2018-11-09 03:00:00 15.3 16 Noroeste 39 Sudoeste 0 1014.4 0 77
2018-11-09 02:00:00 15.6 31 Sudoeste 42 Sudoeste 0 1013.8 -0.6 90
2018-11-09 01:00:00 15.6 25 Oeste 45 Sudoeste 0 1014.2 -0.1 92
2018-11-09 00:00:00 15.9 31 Sudoeste 45 Sudoeste 0 1014.4 0.1 94